Time;durP1;ratioP1;P1;durP2;ratioP2;P2;SDS_P1;SDS_P2;PMS_P1;PMS_P2;Temp;Humidity;BMP_temperature;BMP_pressure;BME280_temperature;BME280_humidity;BME280_pressure;Samples;Min_cycle;Max_cycle;Signal;HPM_P1;HPM_P2
2023/01/27 00:00:05;;;;;;;44.37;14.70;;;;;;;-3.77;100.00;96829.00;10416988;28;20221;-61
2023/01/27 00:05:14;;;;;;;63.67;13.50;;;;;;;-3.72;100.00;96823.69;10417306;28;20239;-63
2023/01/27 00:10:16;;;;;;;40.93;13.50;;;;;;;-3.74;100.00;96822.88;10416640;28;20205;-63
2023/01/27 00:15:17;;;;;;;36.07;13.13;;;;;;;-3.79;100.00;96822.25;10416324;28;20603;-61
2023/01/27 00:24:34;;;;;;;46.57;13.37;;;;;;;-3.82;100.00;96817.28;10375416;28;20279;-62
2023/01/27 00:25:37;;;;;;;40.53;15.77;;;;;;;-3.70;100.00;96831.28;10375508;28;20209;-63
2023/01/27 00:30:38;;;;;;;43.37;13.40;;;;;;;-3.74;100.00;96827.19;10375012;28;20213;-63
2023/01/27 00:35:40;;;;;;;49.93;13.93;;;;;;;-3.86;100.00;96821.69;10357632;28;20193;-63
2023/01/27 00:41:13;;;;;;;59.17;13.87;;;;;;;-3.74;100.00;96830.56;10373606;28;20716;-63
2023/01/27 00:46:00;;;;;;;54.40;14.23;;;;;;;-3.89;100.00;96836.34;10374057;28;20295;-63
2023/01/27 00:51:01;;;;;;;71.67;13.53;;;;;;;-3.93;100.00;96840.75;10373841;28;20656;-63
2023/01/27 00:56:02;;;;;;;57.00;12.83;;;;;;;-3.82;100.00;96848.81;10371863;28;20668;-63
2023/01/27 01:01:05;;;;;;;57.27;14.23;;;;;;;-3.95;100.00;96845.13;10372585;28;20217;-63
2023/01/27 01:06:11;;;;;;;88.93;14.17;;;;;;;-3.99;100.00;96843.59;10372910;28;20200;-62
2023/01/27 01:11:13;;;;;;;61.10;15.03;;;;;;;-4.01;100.00;96856.44;10372354;28;20205;-63
2023/01/27 01:16:19;;;;;;;78.70;15.37;;;;;;;-4.01;100.00;96850.47;10373123;28;20185;-63
2023/01/27 01:21:19;;;;;;;63.37;14.40;;;;;;;-3.90;100.00;96857.72;10372464;28;20316;-64
2023/01/27 01:26:19;;;;;;;63.37;15.73;;;;;;;-3.84;100.00;96862.59;10372686;28;20193;-63
2023/01/27 01:31:21;;;;;;;53.67;14.37;;;;;;;-3.84;100.00;96855.72;10371963;28;20201;-63
2023/01/27 01:36:21;;;;;;;88.10;16.47;;;;;;;-3.97;100.00;96865.63;10354433;28;20193;-64
2023/01/27 01:41:22;;;;;;;75.93;16.37;;;;;;;-3.94;100.00;96867.25;10371411;28;20581;-63
2023/01/27 01:46:22;;;;;;;114.57;17.87;;;;;;;-3.98;100.00;96871.66;10370195;28;20189;-64
2023/01/27 01:51:53;;;;;;;107.77;17.00;;;;;;;-3.90;100.00;96871.34;10353220;28;20571;-63
2023/01/27 01:57:17;;;;;;;75.77;16.83;;;;;;;-3.86;100.00;96867.78;10354716;28;20233;-64
2023/01/27 02:02:20;;;;;;;86.50;17.97;;;;;;;-3.92;100.00;96869.72;10336958;28;20248;-64
2023/01/27 02:07:34;;;;;;;70.90;17.37;;;;;;;-3.83;100.00;96864.22;10368427;28;20193;-63
2023/01/27 02:12:34;;;;;;;119.93;19.80;;;;;;;-3.98;100.00;96866.53;10352873;28;20296;-64
2023/01/27 02:17:35;;;;;;;88.83;21.13;;;;;;;-3.97;100.00;96868.19;10370161;28;20276;-63
2023/01/27 02:22:46;;;;;;;62.87;18.10;;;;;;;-4.00;100.00;96868.31;10370196;28;20240;-63
2023/01/27 02:27:46;;;;;;;81.23;19.67;;;;;;;-4.02;100.00;96875.22;10369501;28;20185;-61
2023/01/27 02:32:46;;;;;;;85.10;20.00;;;;;;;-4.02;100.00;96871.84;10356099;28;20320;-63
2023/01/27 02:37:50;;;;;;;81.20;18.63;;;;;;;-4.04;100.00;96877.03;10327679;28;20186;-63
2023/01/27 02:42:54;;;;;;;67.73;18.60;;;;;;;-3.98;100.00;96875.94;10327430;28;20735;-60
2023/01/27 02:47:54;;;;;;;67.50;18.67;;;;;;;-3.90;100.00;96881.59;10327924;28;20205;-63
2023/01/27 02:52:55;;;;;;;76.90;19.23;;;;;;;-3.98;100.00;96881.03;10328386;28;20189;-63
2023/01/27 02:57:55;;;;;;;80.37;20.40;;;;;;;-3.93;100.00;96883.44;10327144;28;20240;-63
2023/01/27 03:03:18;;;;;;;89.80;20.43;;;;;;;-3.92;100.00;96892.75;10327580;28;20198;-62
2023/01/27 03:08:20;;;;;;;81.57;18.67;;;;;;;-3.96;100.00;96903.13;10327127;28;20214;-61
2023/01/27 03:13:24;;;;;;;89.63;19.13;;;;;;;-3.98;100.00;96901.50;10326703;28;20276;-63
2023/01/27 03:18:27;;;;;;;131.97;21.10;;;;;;;-4.10;100.00;96886.66;10326495;28;20359;-62
2023/01/27 03:23:27;;;;;;;90.27;20.17;;;;;;;-3.97;100.00;96898.06;10326816;28;20257;-64
2023/01/27 03:28:28;;;;;;;73.30;20.43;;;;;;;-3.98;100.00;96887.00;10326401;28;20628;-63
2023/01/27 03:33:42;;;;;;;75.30;19.90;;;;;;;-3.95;100.00;96891.19;10326752;28;20198;-64
2023/01/27 03:49:42;;;;;;;94.67;22.17;;;;;;;-4.01;100.00;96892.25;10326928;28;20297;-64
2023/01/27 03:54:42;;;;;;;73.57;20.23;;;;;;;-3.99;100.00;96889.63;10327660;28;20265;-63
2023/01/27 03:59:43;;;;;;;76.37;21.37;;;;;;;-3.95;100.00;96896.31;10309963;28;20304;-63
2023/01/27 04:10:03;;;;;;;132.93;23.80;;;;;;;-4.09;100.00;96904.50;10367662;28;20712;-61
2023/01/27 04:15:04;;;;;;;110.43;22.97;;;;;;;-4.06;100.00;96903.56;10370425;28;20572;-64
2023/01/27 04:20:05;;;;;;;111.07;24.30;;;;;;;-4.06;100.00;96901.00;10375150;28;20225;-63
2023/01/27 04:25:07;;;;;;;145.73;25.10;;;;;;;-4.14;100.00;96901.31;10375536;28;20193;-63
2023/01/27 04:30:08;;;;;;;98.67;23.20;;;;;;;-4.18;100.00;96910.00;10375553;28;20209;-64
2023/01/27 04:35:08;;;;;;;90.33;22.57;;;;;;;-4.17;100.00;96917.59;10374945;28;20232;-64
2023/01/27 04:40:09;;;;;;;69.30;20.53;;;;;;;-4.26;100.00;96907.75;10373321;28;20686;-63
2023/01/27 04:45:10;;;;;;;65.60;20.03;;;;;;;-4.27;100.00;96911.22;10374774;28;20198;-63
2023/01/27 04:50:11;;;;;;;53.33;19.20;;;;;;;-4.10;100.00;96904.56;10374800;28;20779;-62
2023/01/27 04:55:11;;;;;;;76.30;22.60;;;;;;;-4.18;100.00;96904.88;10375041;28;20189;-63
2023/01/27 05:00:12;;;;;;;92.57;25.60;;;;;;;-4.22;100.00;96911.03;10373588;28;20229;-63
2023/01/27 05:05:12;;;;;;;90.57;25.40;;;;;;;-4.20;100.00;96910.06;10373816;28;20200;-62
2023/01/27 05:10:12;;;;;;;96.30;25.73;;;;;;;-4.09;100.00;96901.13;10373445;28;20765;-62
2023/01/27 05:15:13;;;;;;;84.37;23.20;;;;;;;-4.07;100.00;96912.97;10373748;28;20291;-62
2023/01/27 05:20:13;;;;;;;95.73;23.83;;;;;;;-4.10;100.00;96905.41;10373138;28;20291;-62
2023/01/27 05:25:13;;;;;;;113.53;23.63;;;;;;;-4.10;100.00;96912.25;10372686;28;20197;-62
2023/01/27 05:30:14;;;;;;;81.43;22.97;;;;;;;-4.19;100.00;96918.59;10373064;28;20209;-62
2023/01/27 05:35:14;;;;;;;96.07;21.63;;;;;;;-4.13;100.00;96920.91;10372720;28;20208;-63
2023/01/27 05:40:15;;;;;;;86.30;21.07;;;;;;;-4.11;100.00;96921.66;10405952;23;21110;-55
2023/01/27 05:45:15;;;;;;;75.43;20.90;;;;;;;-4.03;100.00;96939.25;10410988;28;20737;-59
2023/01/27 05:50:16;;;;;;;87.80;23.23;;;;;;;-4.00;100.00;96934.03;10412182;28;20403;-56
2023/01/27 05:55:16;;;;;;;71.23;20.30;;;;;;;-3.99;100.00;96935.69;10413011;28;20268;-59
2023/01/27 06:00:17;;;;;;;62.60;18.30;;;;;;;-3.97;100.00;96949.25;10412323;28;20212;-59
2023/01/27 06:05:18;;;;;;;57.57;17.87;;;;;;;-3.97;100.00;96950.06;10412780;28;20196;-59
2023/01/27 06:10:18;;;;;;;51.53;16.43;;;;;;;-3.97;100.00;96939.84;10412332;28;20586;-58
2023/01/27 06:15:18;;;;;;;41.67;14.53;;;;;;;-4.04;100.00;96938.44;10412558;28;20831;-59
2023/01/27 06:20:19;;;;;;;47.23;14.30;;;;;;;-4.04;100.00;96932.47;10411818;28;20707;-60
2023/01/27 06:25:19;;;;;;;41.17;12.93;;;;;;;-4.00;100.00;96950.19;10408489;28;20722;-58
2023/01/27 06:30:19;;;;;;;51.27;14.23;;;;;;;-4.07;100.00;96945.38;10393685;28;20759;-61
2023/01/27 06:35:20;;;;;;;54.77;14.67;;;;;;;-3.93;100.00;96949.97;10411618;28;20746;-61
2023/01/27 06:40:20;;;;;;;49.90;13.47;;;;;;;-3.92;100.00;96946.50;10397718;28;20279;-61
2023/01/27 06:45:21;;;;;;;55.83;13.03;;;;;;;-3.96;100.00;96966.28;10404951;28;20192;-58
2023/01/27 06:50:22;;;;;;;51.97;13.43;;;;;;;-3.97;100.00;96965.41;10411116;28;20258;-59
2023/01/27 06:55:23;;;;;;;46.47;13.60;;;;;;;-3.91;100.00;96968.66;10410807;28;20185;-58
2023/01/27 07:00:23;;;;;;;64.47;12.43;;;;;;;-3.99;100.00;96972.34;10410971;28;20224;-60
2023/01/27 07:05:24;;;;;;;41.07;12.07;;;;;;;-3.90;100.00;96960.09;10410685;28;20738;-59
2023/01/27 07:10:24;;;;;;;55.17;11.63;;;;;;;-3.99;100.00;96968.97;10410336;28;20208;-60
2023/01/27 07:15:25;;;;;;;48.47;10.43;;;;;;;-3.97;100.00;96985.06;10410659;28;20220;-59
2023/01/27 07:20:28;;;;;;;33.80;10.73;;;;;;;-3.98;100.00;96976.56;10410173;28;20247;-59
2023/01/27 07:25:29;;;;;;;37.63;9.83;;;;;;;-3.86;100.00;96979.53;10404761;28;20196;-59
2023/01/27 07:30:30;;;;;;;38.40;10.07;;;;;;;-3.78;100.00;96995.44;10387062;28;20229;-59
2023/01/27 07:35:31;;;;;;;38.50;10.10;;;;;;;-3.83;100.00;97002.44;10386916;28;20599;-60
2023/01/27 07:40:31;;;;;;;27.57;8.13;;;;;;;-3.73;100.00;97001.19;10378312;28;20257;-59
2023/01/27 07:45:32;;;;;;;26.67;9.00;;;;;;;-3.68;100.00;97009.50;10369087;28;20193;-59
2023/01/27 07:50:33;;;;;;;36.70;10.50;;;;;;;-3.68;100.00;97009.50;10392976;28;20295;-59
2023/01/27 07:55:34;;;;;;;30.83;9.00;;;;;;;-3.56;100.00;97003.06;10391580;28;20200;-56
2023/01/27 08:00:34;;;;;;;34.27;10.00;;;;;;;-3.68;100.00;97009.50;10375613;28;20225;-55
2023/01/27 08:05:37;;;;;;;33.53;8.90;;;;;;;-3.45;100.00;97002.63;10373576;28;20197;-61
2023/01/27 08:10:37;;;;;;;26.53;9.50;;;;;;;-3.54;100.00;97014.06;10373934;28;20223;-59
2023/01/27 08:15:37;;;;;;;31.10;9.73;;;;;;;-3.51;100.00;97019.06;10374520;28;20234;-60
2023/01/27 08:20:38;;;;;;;30.60;9.70;;;;;;;-3.47;100.00;97015.50;10372308;28;20243;-59
2023/01/27 08:25:38;;;;;;;23.43;9.37;;;;;;;-3.37;100.00;97013.38;10374346;28;20685;-59
2023/01/27 08:30:39;;;;;;;25.43;8.50;;;;;;;-3.14;100.00;97001.34;10373650;28;20220;-58
2023/01/27 08:35:43;;;;;;;26.73;8.97;;;;;;;-3.05;100.00;97014.63;10387511;28;20260;-59
2023/01/27 08:40:45;;;;;;;31.10;10.90;;;;;;;-2.93;100.00;97012.41;10394067;28;20240;-58
2023/01/27 08:45:46;;;;;;;38.83;12.00;;;;;;;-3.00;100.00;97014.41;10391564;28;20221;-59
2023/01/27 08:50:46;;;;;;;27.07;11.67;;;;;;;-3.08;100.00;97019.88;10389295;28;20212;-59
2023/01/27 08:55:46;;;;;;;34.50;12.03;;;;;;;-2.97;100.00;97016.84;10395456;28;20200;-59
2023/01/27 09:00:47;;;;;;;39.03;11.77;;;;;;;-2.99;100.00;97021.19;10412499;28;20638;-59
2023/01/27 09:05:47;;;;;;;50.80;13.60;;;;;;;-2.96;100.00;97017.69;10413393;28;20189;-59
2023/01/27 09:10:47;;;;;;;43.10;12.23;;;;;;;-3.12;100.00;97015.78;10412772;28;20291;-57
2023/01/27 09:15:52;;;;;;;42.13;12.77;;;;;;;-3.37;100.00;97012.56;10412757;28;20197;-59
2023/01/27 09:20:52;;;;;;;34.13;13.87;;;;;;;-3.42;100.00;97023.81;10395299;28;20233;-59
2023/01/27 09:25:52;;;;;;;45.50;13.37;;;;;;;-3.32;100.00;97024.28;10371472;28;20204;-58
2023/01/27 09:30:58;;;;;;;39.17;13.70;;;;;;;-3.23;100.00;97030.78;10402636;28;20212;-57
2023/01/27 09:36:08;;;;;;;55.97;15.50;;;;;;;-3.45;100.00;97030.78;10390700;28;20594;-59
2023/01/27 09:41:26;;;;;;;39.17;14.03;;;;;;;-3.32;100.00;97036.25;10370243;28;20323;-59
2023/01/27 09:46:52;;;;;;;56.03;16.17;;;;;;;-3.38;100.00;97041.63;10368387;28;20291;-58
2023/01/27 09:52:15;;;;;;;50.97;15.33;;;;;;;-3.36;100.00;97042.41;10380689;28;20249;-60
2023/01/27 09:57:28;;;;;;;66.23;15.53;;;;;;;-3.54;100.00;97055.03;10354976;28;20213;-58
2023/01/27 10:02:40;;;;;;;41.60;15.17;;;;;;;-3.32;100.00;97055.03;10381694;28;20367;-58
2023/01/27 10:07:46;;;;;;;41.30;15.33;;;;;;;-3.08;100.00;97047.22;10382554;28;20268;-59
2023/01/27 10:13:12;;;;;;;62.80;19.87;;;;;;;-3.14;100.00;97043.19;10382357;28;20205;-58
2023/01/27 10:18:45;;;;;;;67.63;19.90;;;;;;;-2.99;100.00;97036.56;10366009;28;20189;-57
2023/01/27 10:24:15;;;;;;;43.00;18.37;;;;;;;-2.94;100.00;97033.81;10385509;28;20270;-58
2023/01/27 10:29:28;;;;;;;31.43;15.00;;;;;;;-3.16;100.00;97028.78;10405039;28;20193;-60
2023/01/27 10:34:35;;;;;;;22.43;11.23;;;;;;;-2.94;100.00;97028.69;10364262;28;20570;-59
2023/01/27 10:39:45;;;;;;;20.83;11.03;;;;;;;-3.11;100.00;97027.69;10371907;28;20225;-60
2023/01/27 10:44:51;;;;;;;24.83;12.97;;;;;;;-3.03;100.00;97026.50;10393726;28;20241;-60
2023/01/27 10:49:55;;;;;;;24.03;12.10;;;;;;;-3.12;100.00;97030.31;10383441;28;20206;-58
2023/01/27 10:55:03;;;;;;;21.33;11.97;;;;;;;-3.14;100.00;97025.25;10408913;28;20209;-61
2023/01/27 11:00:13;;;;;;;23.33;11.63;;;;;;;-3.05;100.00;97022.31;10385180;28;20294;-59
2023/01/27 11:05:37;;;;;;;27.37;12.83;;;;;;;-2.79;100.00;97017.78;10372112;28;20189;-59
2023/01/27 11:11:43;;;;;;;23.43;12.63;;;;;;;-2.73;100.00;97016.69;10341280;28;20247;-58
2023/01/27 11:16:05;;;;;;;20.67;10.83;;;;;;;-2.41;100.00;97022.94;10393677;28;20250;-58
2023/01/27 11:21:09;;;;;;;21.20;11.53;;;;;;;-2.40;100.00;97008.41;10374821;28;20213;-59
2023/01/27 11:26:30;;;;;;;18.60;10.80;;;;;;;-2.42;100.00;97012.75;10404051;28;20192;-60
2023/01/27 11:31:34;;;;;;;21.40;11.07;;;;;;;-2.27;100.00;96996.66;10407745;28;20216;-60
2023/01/27 11:36:34;;;;;;;19.53;11.63;;;;;;;-2.46;100.00;97001.00;10415784;28;20193;-59
2023/01/27 11:41:37;;;;;;;26.97;12.37;;;;;;;-2.25;100.00;97001.72;10446180;23;20228;-66
2023/01/27 11:46:37;;;;;;;19.77;10.63;;;;;;;-2.49;100.00;97003.69;10437834;28;20664;-64
2023/01/27 11:51:38;;;;;;;22.00;11.33;;;;;;;-2.60;100.00;97004.16;10427301;28;20220;-64
2023/01/27 11:56:40;;;;;;;20.70;11.50;;;;;;;-2.78;100.00;96995.56;10415719;28;20242;-64
2023/01/27 12:01:46;;;;;;;24.47;12.10;;;;;;;-2.67;100.00;96995.91;10384866;28;20225;-64
2023/01/27 12:07:05;;;;;;;26.30;12.73;;;;;;;-2.56;100.00;97003.13;10415308;28;20189;-63
2023/01/27 12:12:14;;;;;;;34.20;14.70;;;;;;;-2.67;100.00;96990.78;10396998;28;20209;-64
2023/01/27 12:17:39;;;;;;;24.83;13.30;;;;;;;-2.64;100.00;96984.69;10415028;28;20657;-65
2023/01/27 12:22:43;;;;;;;30.07;14.27;;;;;;;-2.69;100.00;96983.16;10396396;28;20220;-65
2023/01/27 12:27:51;;;;;;;24.00;11.97;;;;;;;-2.66;100.00;96986.47;10397308;28;20767;-64
2023/01/27 12:32:52;;;;;;;24.70;13.00;;;;;;;-2.60;100.00;96991.34;10395724;28;20212;-63
2023/01/27 12:38:02;;;;;;;27.40;12.60;;;;;;;-2.53;100.00;96982.44;10395300;28;20243;-63
2023/01/27 12:43:15;;;;;;;26.87;12.60;;;;;;;-2.45;100.00;96974.41;10413909;28;20270;-63
2023/01/27 12:48:18;;;;;;;27.13;12.87;;;;;;;-2.54;100.00;96975.69;10413338;28;20189;-63
2023/01/27 12:53:21;;;;;;;25.57;12.43;;;;;;;-2.49;100.00;96978.03;10415675;28;20216;-65
2023/01/27 12:58:27;;;;;;;26.47;12.57;;;;;;;-2.51;100.00;96980.69;10394810;28;20200;-64
2023/01/27 13:03:28;;;;;;;28.33;13.13;;;;;;;-2.19;100.00;96965.50;10413264;28;20296;-64
2023/01/27 13:08:31;;;;;;;42.47;16.00;;;;;;;-2.67;100.00;96967.69;10405393;28;20638;-63
2023/01/27 13:13:32;;;;;;;28.90;13.17;;;;;;;-2.13;100.00;96964.41;10409562;28;20607;-65
2023/01/27 13:18:37;;;;;;;29.03;13.50;;;;;;;-2.27;100.00;96975.31;10391978;28;20580;-64
2023/01/27 13:23:38;;;;;;;42.23;15.30;;;;;;;-2.61;100.00;96980.25;10423494;28;20305;-64
2023/01/27 13:28:46;;;;;;;31.80;13.30;;;;;;;-2.71;100.00;96986.66;10426425;28;20275;-64
2023/01/27 13:33:59;;;;;;;34.03;15.17;;;;;;;-2.60;100.00;96986.22;10424622;28;20215;-64
2023/01/27 13:39:02;;;;;;;34.03;15.73;;;;;;;-2.55;100.00;96999.66;10380971;28;20219;-64
2023/01/27 13:44:12;;;;;;;30.00;15.93;;;;;;;-2.63;100.00;96999.19;10407743;28;20243;-65
2023/01/27 13:49:16;;;;;;;36.80;16.10;;;;;;;-2.60;100.00;97001.59;10389820;28;20551;-62
2023/01/27 13:54:17;;;;;;;37.27;16.40;;;;;;;-2.61;100.00;96999.94;10389839;28;20301;-64
2023/01/27 13:59:45;;;;;;;30.97;14.53;;;;;;;-2.56;100.00;97009.09;10406844;28;20228;-64
2023/01/27 14:05:04;;;;;;;29.67;14.17;;;;;;;-2.39;100.00;97010.91;10407398;28;20283;-65
2023/01/27 14:10:19;;;;;;;26.30;12.77;;;;;;;-2.07;100.00;97010.31;10406342;28;20262;-63
2023/01/27 14:15:49;;;;;;;33.03;15.83;;;;;;;-2.15;100.00;97005.53;10366422;28;20586;-65
2023/01/27 14:21:06;;;;;;;27.23;12.93;;;;;;;-2.36;100.00;97012.47;10406469;28;20266;-65
2023/01/27 14:26:36;;;;;;;30.00;14.00;;;;;;;-2.51;100.00;97022.53;10406554;28;20564;-65
2023/01/27 14:31:43;;;;;;;31.60;13.97;;;;;;;-2.60;100.00;97025.50;10389094;28;20208;-65
2023/01/27 14:37:02;;;;;;;26.40;13.77;;;;;;;-2.45;100.00;97026.56;10388688;28;20258;-65
2023/01/27 14:42:07;;;;;;;34.97;15.97;;;;;;;-2.59;100.00;97034.03;10386877;28;20228;-64
2023/01/27 14:47:17;;;;;;;40.30;15.47;;;;;;;-2.57;100.00;97047.63;10387551;28;20660;-64
2023/01/27 14:52:43;;;;;;;32.97;15.00;;;;;;;-2.62;100.00;97050.41;10405466;28;20690;-64
2023/01/27 14:58:04;;;;;;;30.23;14.17;;;;;;;-2.71;100.00;97066.16;10380727;28;20633;-64
2023/01/27 15:03:19;;;;;;;26.63;13.47;;;;;;;-2.62;100.00;97064.94;10406628;28;20224;-62
2023/01/27 15:08:46;;;;;;;29.93;13.77;;;;;;;-2.63;100.00;97081.25;10387671;28;20204;-64
2023/01/27 15:14:16;;;;;;;27.83;14.27;;;;;;;-2.69;100.00;97080.59;10417724;28;20299;-64
2023/01/27 15:19:32;;;;;;;28.10;14.23;;;;;;;-2.58;100.00;97087.00;10404308;28;20614;-65
2023/01/27 15:24:53;;;;;;;29.20;13.83;;;;;;;-2.56;100.00;97091.16;10420811;28;20230;-64
2023/01/27 15:29:53;;;;;;;26.87;12.50;;;;;;;-2.53;100.00;97095.31;10403672;28;20208;-64
2023/01/27 15:35:26;;;;;;;22.57;11.90;;;;;;;-2.49;100.00;97101.97;10422282;28;20655;-62
2023/01/27 15:40:27;;;;;;;24.13;11.70;;;;;;;-2.59;100.00;97101.56;10422702;28;20227;-62
2023/01/27 15:45:36;;;;;;;21.60;11.80;;;;;;;-2.45;100.00;97108.66;10409726;28;20192;-62
2023/01/27 15:50:42;;;;;;;23.77;11.13;;;;;;;-2.43;100.00;97101.72;10404822;28;20573;-62
2023/01/27 15:55:49;;;;;;;25.20;11.50;;;;;;;-2.38;100.00;97102.34;10387687;28;20215;-63
2023/01/27 16:00:51;;;;;;;20.80;10.63;;;;;;;-2.48;100.00;97105.38;10404831;28;20223;-64
2023/01/27 16:05:59;;;;;;;21.00;10.40;;;;;;;-2.40;100.00;97113.59;10403345;28;20205;-63
2023/01/27 16:11:20;;;;;;;19.63;11.17;;;;;;;-2.47;100.00;97101.91;10408168;28;20295;-64
2023/01/27 16:16:27;;;;;;;25.57;11.90;;;;;;;-2.48;100.00;97108.78;10411330;28;20204;-62
2023/01/27 16:21:53;;;;;;;56.57;26.33;;;;;;;-2.48;100.00;97105.38;10392178;28;20223;-64
2023/01/27 16:27:03;;;;;;;18.47;11.47;;;;;;;-2.31;100.00;97110.63;10426416;28;20572;-63
2023/01/27 16:32:05;;;;;;;17.37;10.50;;;;;;;-2.36;100.00;97099.72;10411382;28;20219;-64
2023/01/27 16:37:21;;;;;;;17.50;9.23;;;;;;;-2.42;100.00;97107.66;10409748;28;20192;-64
2023/01/27 16:42:28;;;;;;;16.23;9.20;;;;;;;-2.38;100.00;97116.91;10409827;28;20235;-62
2023/01/27 16:47:37;;;;;;;17.97;9.73;;;;;;;-2.37;100.00;97116.03;10409154;28;20200;-62
2023/01/27 16:52:38;;;;;;;17.87;9.90;;;;;;;-2.36;100.00;97122.78;10421948;28;20212;-64
2023/01/27 16:57:44;;;;;;;18.77;10.53;;;;;;;-2.35;100.00;97133.00;10428348;28;20231;-62
2023/01/27 17:02:44;;;;;;;16.07;9.37;;;;;;;-2.27;100.00;97139.53;10415087;28;20271;-63
2023/01/27 17:08:01;;;;;;;16.33;8.70;;;;;;;-2.16;100.00;97140.75;10362408;28;20197;-64
2023/01/27 17:13:02;;;;;;;17.03;9.77;;;;;;;-2.27;100.00;97132.66;10370793;28;20236;-63
2023/01/27 17:18:08;;;;;;;19.67;11.33;;;;;;;-2.26;100.00;97146.34;10371596;28;20207;-62
2023/01/27 17:23:20;;;;;;;18.83;11.27;;;;;;;-2.34;100.00;97151.81;10368958;28;20228;-64
2023/01/27 17:28:25;;;;;;;19.17;11.90;;;;;;;-2.36;100.00;97143.31;10369860;28;20201;-64
2023/01/27 17:33:25;;;;;;;18.53;11.33;;;;;;;-2.33;100.00;97145.75;10413530;28;20227;-63
2023/01/27 17:38:49;;;;;;;21.93;12.17;;;;;;;-2.51;100.00;97143.09;10423551;28;20202;-64
2023/01/27 17:43:50;;;;;;;27.03;13.13;;;;;;;-2.36;100.00;97144.19;10403435;28;20235;-62
2023/01/27 17:48:53;;;;;;;23.30;12.97;;;;;;;-2.46;100.00;97148.03;10429736;28;20193;-64
2023/01/27 17:53:54;;;;;;;32.13;15.83;;;;;;;-2.52;100.00;97154.25;10407375;28;20220;-64
2023/01/27 17:58:59;;;;;;;32.20;16.40;;;;;;;-2.51;100.00;97150.78;10477529;23;20235;-60
2023/01/27 18:04:01;;;;;;;33.00;16.37;;;;;;;-2.46;100.00;97154.91;10451781;28;20560;-61
2023/01/27 18:09:15;;;;;;;31.97;15.33;;;;;;;-2.56;100.00;97157.00;10381999;28;20268;-62
2023/01/27 18:14:18;;;;;;;28.00;14.67;;;;;;;-2.53;100.00;97159.44;10389584;28;20189;-63
2023/01/27 18:19:22;;;;;;;27.47;15.50;;;;;;;-2.61;100.00;97146.94;10388143;28;20208;-63
2023/01/27 18:24:22;;;;;;;32.17;15.57;;;;;;;-2.56;100.00;97149.31;10389950;28;20259;-63
2023/01/27 18:29:23;;;;;;;31.50;15.63;;;;;;;-2.64;100.00;97153.94;10369828;28;20790;-62
2023/01/27 18:34:31;;;;;;;31.90;15.07;;;;;;;-2.63;100.00;97150.47;10389303;28;20570;-63
2023/01/27 18:39:35;;;;;;;31.77;14.20;;;;;;;-2.48;100.00;97161.81;10387717;28;20248;-62
2023/01/27 18:44:35;;;;;;;31.80;15.40;;;;;;;-2.63;100.00;97163.31;10388412;28;20548;-62
2023/01/27 18:49:36;;;;;;;32.60;16.07;;;;;;;-2.59;100.00;97175.09;10387481;28;20213;-62
2023/01/27 18:54:36;;;;;;;38.30;16.63;;;;;;;-2.62;100.00;97172.66;10383464;28;20189;-62
2023/01/27 18:59:37;;;;;;;42.03;17.80;;;;;;;-2.55;100.00;97171.50;10369031;28;20314;-61
2023/01/27 19:04:37;;;;;;;41.03;18.27;;;;;;;-2.65;100.00;97177.91;10369696;28;20224;-61
2023/01/27 19:09:37;;;;;;;43.17;18.00;;;;;;;-2.57;100.00;97175.88;10369321;28;20217;-63
2023/01/27 19:14:40;;;;;;;45.90;17.73;;;;;;;-2.70;100.00;97171.22;10369058;28;20204;-61
2023/01/27 19:19:40;;;;;;;44.57;19.10;;;;;;;-2.65;100.00;97173.59;10368971;28;20226;-62
2023/01/27 19:31:08;;;;;;;62.73;28.17;;;;;;;-2.60;100.00;97192.22;10202956;29;20283;-63
2023/01/27 19:36:19;;;;;;;66.23;29.07;;;;;;;-2.63;100.00;97194.06;10378539;28;20224;-63
2023/01/27 19:41:19;;;;;;;63.57;26.37;;;;;;;-2.64;100.00;97203.47;10409582;28;20224;-64
2023/01/27 19:46:21;;;;;;;62.50;27.00;;;;;;;-2.61;100.00;97208.47;10404679;28;20216;-64
2023/01/27 19:51:21;;;;;;;80.20;30.37;;;;;;;-2.72;100.00;97211.50;10376770;28;20275;-64
2023/01/27 19:56:22;;;;;;;71.60;28.67;;;;;;;-2.70;100.00;97217.38;10376396;28;20339;-64
2023/01/27 20:01:23;;;;;;;78.87;27.97;;;;;;;-2.67;100.00;97226.69;10376048;28;20308;-64
2023/01/27 20:06:26;;;;;;;74.50;27.77;;;;;;;-2.67;100.00;97234.38;10376110;28;20217;-64
2023/01/27 20:11:35;;;;;;;77.50;28.63;;;;;;;-2.66;100.00;97246.31;10375667;28;20189;-64
2023/01/27 20:16:35;;;;;;;68.47;26.27;;;;;;;-2.71;100.00;97245.66;10375888;28;20212;-64
2023/01/27 20:21:35;;;;;;;83.57;27.83;;;;;;;-2.64;100.00;97248.81;10375466;28;20244;-64
2023/01/27 20:26:36;;;;;;;79.43;28.43;;;;;;;-2.66;100.00;97251.44;10375059;28;20217;-62
2023/01/27 20:31:37;;;;;;;80.80;29.17;;;;;;;-2.62;100.00;97247.03;10375290;28;20201;-63
2023/01/27 20:36:37;;;;;;;75.40;28.27;;;;;;;-2.60;100.00;97250.38;10374289;28;20705;-64
2023/01/27 20:41:38;;;;;;;70.37;26.10;;;;;;;-2.55;100.00;97246.72;10373368;28;20221;-63
2023/01/27 20:46:38;;;;;;;75.57;28.77;;;;;;;-2.67;100.00;97247.19;10371252;28;20228;-63
2023/01/27 20:51:39;;;;;;;80.27;30.20;;;;;;;-2.72;100.00;97241.44;10371260;28;20279;-63
2023/01/27 20:56:39;;;;;;;72.50;27.10;;;;;;;-2.68;100.00;97245.53;10369876;28;20237;-61
2023/01/27 21:01:39;;;;;;;75.67;28.03;;;;;;;-2.62;100.00;97240.19;10370483;28;20231;-64
2023/01/27 21:06:40;;;;;;;91.10;30.27;;;;;;;-2.69;100.00;97228.50;10370552;28;20790;-61
2023/01/27 21:11:40;;;;;;;92.77;32.33;;;;;;;-2.66;100.00;97237.78;10370331;28;20669;-62
2023/01/27 21:16:40;;;;;;;83.87;30.67;;;;;;;-2.66;100.00;97246.31;10370215;28;20715;-62
2023/01/27 21:21:41;;;;;;;100.50;31.07;;;;;;;-2.66;100.00;97248.88;10370041;28;20764;-62
2023/01/27 21:26:42;;;;;;;93.93;30.73;;;;;;;-2.61;100.00;97257.22;10370881;28;20708;-64
2023/01/27 21:31:42;;;;;;;95.53;31.83;;;;;;;-2.57;100.00;97263.91;10385653;28;20184;-63
2023/01/27 21:36:43;;;;;;;91.63;31.83;;;;;;;-2.56;100.00;97262.16;10385698;28;20219;-63
2023/01/27 21:46:52;;;;;;;90.33;31.97;;;;;;;-2.59;100.00;97277.66;10385158;28;20258;-62
2023/01/27 21:51:53;;;;;;;95.97;31.20;;;;;;;-2.61;100.00;97270.03;10395239;28;20184;-62
2023/01/27 21:56:54;;;;;;;91.17;33.23;;;;;;;-2.60;100.00;97269.16;10409445;28;20675;-64
2023/01/27 22:01:54;;;;;;;101.63;31.80;;;;;;;-2.55;100.00;97269.78;10408061;28;20319;-63
2023/01/27 22:06:54;;;;;;;102.10;31.77;;;;;;;-2.61;100.00;97276.91;10408867;28;20215;-63
2023/01/27 22:11:55;;;;;;;94.97;32.17;;;;;;;-2.61;100.00;97267.47;10409251;28;20195;-63
2023/01/27 22:16:55;;;;;;;81.03;29.37;;;;;;;-2.52;100.00;97267.09;10408948;28;20220;-64
2023/01/27 22:21:56;;;;;;;82.27;28.27;;;;;;;-2.60;100.00;97264.03;10408316;28;20231;-64
2023/01/27 22:26:56;;;;;;;85.40;29.47;;;;;;;-2.61;100.00;97269.22;10408385;28;20244;-64
2023/01/27 22:31:56;;;;;;;87.57;29.10;;;;;;;-2.56;100.00;97268.16;10408737;28;20184;-62
2023/01/27 22:36:57;;;;;;;86.93;32.57;;;;;;;-2.50;100.00;97264.47;10408216;28;20208;-62
2023/01/27 22:41:57;;;;;;;74.37;30.97;;;;;;;-2.38;100.00;97268.28;10408051;28;20216;-64
2023/01/27 22:46:57;;;;;;;74.00;27.47;;;;;;;-2.43;100.00;97259.94;10408204;28;20216;-64
2023/01/27 22:51:58;;;;;;;78.37;28.27;;;;;;;-2.58;100.00;97259.66;10408085;28;20192;-63
2023/01/27 22:56:58;;;;;;;76.00;29.30;;;;;;;-2.52;100.00;97266.28;10407859;28;20327;-63
2023/01/27 23:01:58;;;;;;;76.33;27.97;;;;;;;-2.54;100.00;97257.81;10408083;28;20228;-63
2023/01/27 23:06:59;;;;;;;77.83;27.93;;;;;;;-2.61;100.00;97257.22;10407439;28;20209;-63
2023/01/27 23:11:59;;;;;;;78.17;27.53;;;;;;;-2.57;100.00;97256.22;10407997;28;20196;-62
2023/01/27 23:16:59;;;;;;;76.37;28.90;;;;;;;-2.58;100.00;97246.00;10407331;28;20243;-62